NCAR-RAP Real-Time Weather Data

Output produced by METARs form (23 February 2020  01:05 UTC)
found at http://weather.rap.ucar.edu/surface/
 
KRIC 230054Z 16006KT 10SM CLR 04/M04 A3031 RMK AO2 SLP269 T00441044
KRIC 222354Z 18006KT 10SM CLR 05/M06 A3030 RMK AO2 SLP267 T00501056 10117 20050 53003
KRIC 222254Z 19007KT 10SM CLR 07/M06 A3029 RMK AO2 SLP264 T00721056
KRIC 222154Z 21006KT 10SM CLR 11/M06 A3029 RMK AO2 SLP262 T01111061
KRIC 222054Z 20008KT 10SM FEW300 12/M07 A3029 RMK AO2 SLP263 T01171072 56025
KRIC 221954Z 19011KT 10SM FEW300 12/M07 A3030 RMK AO2 SLP267 T01171072
KRIC 221854Z 21010KT 10SM FEW300 11/M08 A3033 RMK AO2 SLP275 T01111083
KRIC 221754Z 19005KT 10SM FEW300 10/M09 A3037 RMK AO2 SLP288 T01001089 10100 21061 58023 $
KRIC 221654Z 21006KT 10SM FEW300 09/M09 A3040 RMK AO2 SLP300 T00891089 $
KRIC 221554Z 21006KT 10SM FEW350 07/M09 A3042 RMK AO2 SLP308 T00671094 $
KRIC 221454Z 22007KT 10SM FEW350 04/M09 A3043 RMK AO2 SLP313 T00391094 50003 $
KRIC 221354Z 23007KT 10SM FEW350 01/M09 A3044 RMK AO2 SLP316 T00111089 $
KRIC 221254Z 22008KT 10SM FEW300 M02/M08 A3044 RMK AO2 SLP313 T10221078 $
KRIC 221154Z 22003KT 10SM CLR M06/M10 A3042 RMK AO2 SLP309 T10611100 11039 21067 53005 $
KRIC 221054Z 20005KT 10SM CLR M07/M10 A3041 RMK AO2 SLP304 T10671100 $
KRIC 220954Z 21003KT 10SM CLR M06/M09 A3041 RMK AO2 SLP304 T10611094 $
KRIC 220854Z 00000KT 10SM CLR M06/M09 A3041 RMK AO2 SLP304 T10561094 56010 $
KRIC 220754Z 00000KT 10SM CLR M06/M09 A3041 RMK AO2 SLP304 T10561094
KRIC 220654Z 22003KT 10SM CLR M05/M09 A3043 RMK AO2 SLP311 T10501094
KRIC 220554Z 00000KT 10SM CLR M04/M09 A3044 RMK AO2 SLP315 T10441094 10006 21056 56014
KRIC 220454Z 21003KT 10SM CLR M04/M09 A3045 RMK AO2 SLP318 T10441094 400441056
KRIC 220354Z 24003KT 10SM CLR M05/M10 A3047 RMK AO2 SLP325 T10501100
KRIC 220254Z 00000KT 10SM CLR M03/M11 A3048 RMK AO2 SLP329 T10281106 58002
KRIC 220154Z 00000KT 10SM CLR M03/M10 A3049 RMK AO2 SLP331 T10331100
KRIC 220054Z 00000KT 10SM CLR M02/M11 A3049 RMK AO2 SLP332 T10171106
KRIC 212354Z 00000KT 10SM CLR 01/M12 A3049 RMK AO2 SLP331 T00061122 10044 20000 53003
KRIC 212254Z 02006KT 10SM CLR 01/M13 A3048 RMK AO2 SLP328 T00111128
KRIC 212154Z 35011KT 10SM CLR 03/M13 A3048 RMK AO2 SLP327 T00331133
KRIC 212054Z 03008KT 10SM CLR 04/M12 A3048 RMK AO2 SLP328 T00391122 56011
KRIC 211954Z 02008KT 10SM CLR 03/M13 A3048 RMK AO2 SLP329 T00331128
KRIC 211854Z 33012KT 10SM CLR 03/M12 A3050 RMK AO2 SLP334 T00281117
KRIC 211754Z 01007KT 10SM CLR 02/M11 A3051 RMK AO2 SLP339 T00171111 10022 21039 58006
KRIC 211654Z 04014KT 10SM FEW045 01/M10 A3053 RMK AO2 SLP346 T00111100
KRIC 211554Z 35012G18KT 10SM FEW045 00/M09 A3054 RMK AO2 SLP348 T00001094
KRIC 211454Z 01015KT 10SM FEW042 M02/M10 A3053 RMK AO2 SLP345 T10171100 51021
KRIC 211354Z 36015G19KT 10SM FEW040 M02/M10 A3052 RMK AO2 SLP342 T10221100
KRIC 211254Z 35012KT 10SM FEW040 M03/M10 A3050 RMK AO2 SLP336 T10331100
KRIC 211154Z 35014KT 10SM FEW045 M03/M10 A3047 RMK AO2 SLP323 70007 T10331100 10000 21039 53026
KRIC 211054Z 35013KT 10SM BKN045 M03/M09 A3044 RMK AO2 SLP314 T10281089
KRIC 210954Z 35015G21KT 10SM OVC042 M02/M08 A3041 RMK AO2 SLP305 T10171083
KRIC 210854Z 36013KT 10SM BKN040 M02/M08 A3039 RMK AO2 SLP297 T10171078 53000
KRIC 210754Z 36013KT 10SM SCT037 BKN200 M01/M06 A3038 RMK AO2 SLP296 T10061061
KRIC 210654Z 01009KT 10SM BKN150 00/M05 A3038 RMK AO2 SLP296 T00001050
KRIC 210554Z 35008KT 10SM FEW120 00/M02 A3039 RMK AO2 SLP296 60002 T00001017 10000 21006 51004
KRIC 210454Z 35007KT 10SM BKN100 OVC120 00/M01 A3038 RMK AO2 SLP296 T00001011 400441006
KRIC 210354Z 35005KT 10SM FEW006 BKN100 OVC120 M01/M01 A3038 RMK AO2 SLP294 T10061011
KRIC 210254Z 01003KT 10SM FEW006 OVC110 M01/M01 A3037 RMK AO2 SLP292 60002 T10061011 58001
KRIC 210154Z 09003KT 10SM SCT006 OVC085 M01/M01 A3038 RMK AO2 SNE01 SLP295 P0000 T10061011
KRIC 210106Z 08003KT 8SM SCT006 OVC055 M01/M01 A3038 RMK AO2 SNE01 P0000 T10061011